sensor_id;sensor_type;location;lat;lon;timestamp;pressure;altitude;pressure_sealevel;temperature;humidity
11448;BME280;43755;49.736;8.734;2022-10-04T00:00:39;98655.16;;;5.69;100.00
11448;BME280;43755;49.736;8.734;2022-10-04T00:02:43;98640.19;;;5.74;100.00
11448;BME280;43755;49.736;8.734;2022-10-04T00:04:51;98643.63;;;5.78;100.00
11448;BME280;43755;49.736;8.734;2022-10-04T00:06:57;98643.63;;;5.80;100.00
11448;BME280;43755;49.736;8.734;2022-10-04T00:09:04;98645.31;;;5.84;100.00
11448;BME280;43755;49.736;8.734;2022-10-04T00:11:13;98644.56;;;5.77;100.00
11448;BME280;43755;49.736;8.734;2022-10-04T00:13:22;98642.00;;;5.71;100.00
11448;BME280;43755;49.736;8.734;2022-10-04T00:15:28;98647.28;;;5.69;100.00
11448;BME280;43755;49.736;8.734;2022-10-04T00:17:31;98644.66;;;5.69;100.00
11448;BME280;43755;49.736;8.734;2022-10-04T00:19:43;98642.88;;;5.70;100.00
11448;BME280;43755;49.736;8.734;2022-10-04T00:22:16;98640.28;;;5.68;100.00
11448;BME280;43755;49.736;8.734;2022-10-04T00:24:19;98637.66;;;5.68;100.00
11448;BME280;43755;49.736;8.734;2022-10-04T00:29:30;98656.97;;;5.64;100.00
11448;BME280;43755;49.736;8.734;2022-10-04T00:34:44;98650.06;;;5.57;100.00
11448;BME280;43755;49.736;8.734;2022-10-04T00:36:55;98646.56;;;5.57;100.00
11448;BME280;43755;49.736;8.734;2022-10-04T00:39:23;98640.38;;;5.61;100.00
11448;BME280;43755;49.736;8.734;2022-10-04T00:41:25;98639.41;;;5.68;100.00
11448;BME280;43755;49.736;8.734;2022-10-04T00:43:31;98635.03;;;5.67;100.00
11448;BME280;43755;49.736;8.734;2022-10-04T00:45:40;98635.09;;;5.64;100.00
11448;BME280;43755;49.736;8.734;2022-10-04T00:48:13;98636.00;;;5.61;100.00
11448;BME280;43755;49.736;8.734;2022-10-04T00:50:21;98635.16;;;5.58;100.00
11448;BME280;43755;49.736;8.734;2022-10-04T00:52:29;98640.44;;;5.56;100.00
11448;BME280;43755;49.736;8.734;2022-10-04T00:54:35;98629.06;;;5.54;100.00
11448;BME280;43755;49.736;8.734;2022-10-04T00:56:43;98638.81;;;5.45;100.00
11448;BME280;43755;49.736;8.734;2022-10-04T00:59:04;98645.03;;;5.39;100.00
11448;BME280;43755;49.736;8.734;2022-10-04T01:01:10;98644.22;;;5.34;100.00
11448;BME280;43755;49.736;8.734;2022-10-04T01:03:16;98638.09;;;5.33;100.00
11448;BME280;43755;49.736;8.734;2022-10-04T01:05:23;98641.59;;;5.34;100.00
11448;BME280;43755;49.736;8.734;2022-10-04T01:07:28;98635.50;;;5.30;100.00
11448;BME280;43755;49.736;8.734;2022-10-04T01:09:33;98627.53;;;5.40;100.00
11448;BME280;43755;49.736;8.734;2022-10-04T01:11:40;98625.69;;;5.46;100.00
11448;BME280;43755;49.736;8.734;2022-10-04T01:13:48;98631.91;;;5.38;100.00
11448;BME280;43755;49.736;8.734;2022-10-04T01:15:53;98620.53;;;5.37;100.00
11448;BME280;43755;49.736;8.734;2022-10-04T01:18:10;98617.91;;;5.37;100.00
11448;BME280;43755;49.736;8.734;2022-10-04T01:20:30;98611.88;;;5.32;100.00
11448;BME280;43755;49.736;8.734;2022-10-04T01:22:40;98610.13;;;5.31;100.00
11448;BME280;43755;49.736;8.734;2022-10-04T01:24:43;98609.25;;;5.30;100.00
11448;BME280;43755;49.736;8.734;2022-10-04T01:26:46;98607.50;;;5.32;100.00
11448;BME280;43755;49.736;8.734;2022-10-04T01:28:48;98617.19;;;5.26;100.00
11448;BME280;43755;49.736;8.734;2022-10-04T01:30:49;98613.75;;;5.19;100.00
11448;BME280;43755;49.736;8.734;2022-10-04T01:32:52;98614.75;;;5.11;100.00
11448;BME280;43755;49.736;8.734;2022-10-04T01:34:54;98616.50;;;5.09;100.00
11448;BME280;43755;49.736;8.734;2022-10-04T01:36:58;98606.03;;;5.07;100.00
11448;BME280;43755;49.736;8.734;2022-10-04T01:39:02;98606.00;;;5.12;100.00
11448;BME280;43755;49.736;8.734;2022-10-04T01:41:05;98602.50;;;5.11;100.00
11448;BME280;43755;49.736;8.734;2022-10-04T01:43:12;98609.53;;;5.09;100.00
11448;BME280;43755;49.736;8.734;2022-10-04T01:45:20;98600.72;;;5.13;100.00
11448;BME280;43755;49.736;8.734;2022-10-04T01:47:26;98592.78;;;5.21;100.00
11448;BME280;43755;49.736;8.734;2022-10-04T01:49:33;98590.22;;;5.16;100.00
11448;BME280;43755;49.736;8.734;2022-10-04T01:51:41;98595.47;;;5.13;100.00
11448;BME280;43755;49.736;8.734;2022-10-04T01:53:46;98600.78;;;5.10;100.00
11448;BME280;43755;49.736;8.734;2022-10-04T01:55:54;98596.47;;;5.06;100.00
11448;BME280;43755;49.736;8.734;2022-10-04T01:58:08;98605.28;;;4.98;100.00
11448;BME280;43755;49.736;8.734;2022-10-04T02:00:12;98589.59;;;4.93;100.00
11448;BME280;43755;49.736;8.734;2022-10-04T02:02:19;98578.19;;;4.99;100.00
11448;BME280;43755;49.736;8.734;2022-10-04T02:04:26;98571.13;;;5.02;100.00
11448;BME280;43755;49.736;8.734;2022-10-04T02:06:34;98565.00;;;5.05;100.00
11448;BME280;43755;49.736;8.734;2022-10-04T02:08:39;98555.44;;;5.01;100.00
11448;BME280;43755;49.736;8.734;2022-10-04T02:10:48;98560.69;;;4.99;100.00
11448;BME280;43755;49.736;8.734;2022-10-04T02:12:52;98561.53;;;5.01;100.00
11448;BME280;43755;49.736;8.734;2022-10-04T02:14:55;98560.66;;;5.02;100.00
11448;BME280;43755;49.736;8.734;2022-10-04T02:16:59;98558.06;;;5.01;100.00
11448;BME280;43755;49.736;8.734;2022-10-04T02:19:02;98557.22;;;4.97;100.00
11448;BME280;43755;49.736;8.734;2022-10-04T02:21:05;98551.03;;;5.01;100.00
11448;BME280;43755;49.736;8.734;2022-10-04T02:23:08;98537.03;;;5.05;100.00
11448;BME280;43755;49.736;8.734;2022-10-04T02:25:11;98536.97;;;5.08;100.00
11448;BME280;43755;49.736;8.734;2022-10-04T02:27:15;98530.91;;;5.05;100.00
11448;BME280;43755;49.736;8.734;2022-10-04T02:29:18;98535.28;;;5.04;100.00
11448;BME280;43755;49.736;8.734;2022-10-04T02:31:20;98543.16;;;5.04;100.00
11448;BME280;43755;49.736;8.734;2022-10-04T02:33:41;98544.97;;;4.99;100.00
11448;BME280;43755;49.736;8.734;2022-10-04T02:35:45;98555.53;;;4.90;100.00
11448;BME280;43755;49.736;8.734;2022-10-04T02:37:53;98556.66;;;4.71;100.00
11448;BME280;43755;49.736;8.734;2022-10-04T02:40:02;98548.81;;;4.68;100.00
11448;BME280;43755;49.736;8.734;2022-10-04T02:42:11;98547.97;;;4.64;100.00
11448;BME280;43755;49.736;8.734;2022-10-04T02:44:19;98545.31;;;4.69;100.00
11448;BME280;43755;49.736;8.734;2022-10-04T02:46:24;98539.94;;;4.78;100.00
11448;BME280;43755;49.736;8.734;2022-10-04T02:48:35;98539.94;;;4.81;100.00
11448;BME280;43755;49.736;8.734;2022-10-04T02:50:43;98540.72;;;4.87;100.00
11448;BME280;43755;49.736;8.734;2022-10-04T02:52:49;98551.16;;;4.89;100.00
11448;BME280;43755;49.736;8.734;2022-10-04T02:54:56;98538.94;;;4.89;100.00
11448;BME280;43755;49.736;8.734;2022-10-04T02:57:02;98538.91;;;4.94;100.00
11448;BME280;43755;49.736;8.734;2022-10-04T02:59:04;98536.22;;;5.00;100.00
11448;BME280;43755;49.736;8.734;2022-10-04T03:01:15;98538.88;;;4.95;100.00
11448;BME280;43755;49.736;8.734;2022-10-04T03:03:21;98544.09;;;4.97;100.00
11448;BME280;43755;49.736;8.734;2022-10-04T03:05:23;98538.00;;;4.95;100.00
11448;BME280;43755;49.736;8.734;2022-10-04T03:07:26;98531.00;;;4.95;100.00
11448;BME280;43755;49.736;8.734;2022-10-04T03:09:28;98522.31;;;4.93;100.00
11448;BME280;43755;49.736;8.734;2022-10-04T03:11:32;98517.00;;;4.97;100.00
11448;BME280;43755;49.736;8.734;2022-10-04T03:13:36;98513.50;;;4.96;100.00
11448;BME280;43755;49.736;8.734;2022-10-04T03:15:38;98510.03;;;4.95;100.00
11448;BME280;43755;49.736;8.734;2022-10-04T03:17:42;98505.72;;;4.91;100.00
11448;BME280;43755;49.736;8.734;2022-10-04T03:19:46;98508.34;;;4.90;100.00
11448;BME280;43755;49.736;8.734;2022-10-04T03:21:52;98514.53;;;4.84;100.00
11448;BME280;43755;49.736;8.734;2022-10-04T03:23:55;98520.69;;;4.82;100.00
11448;BME280;43755;49.736;8.734;2022-10-04T03:26:00;98516.34;;;4.81;100.00
11448;BME280;43755;49.736;8.734;2022-10-04T03:28:03;98519.81;;;4.83;100.00
11448;BME280;43755;49.736;8.734;2022-10-04T03:30:06;98525.94;;;4.82;100.00
11448;BME280;43755;49.736;8.734;2022-10-04T03:32:11;98531.19;;;4.82;100.00
11448;BME280;43755;49.736;8.734;2022-10-04T03:34:16;98532.09;;;4.78;100.00
11448;BME280;43755;49.736;8.734;2022-10-04T03:36:18;98540.81;;;4.78;100.00
11448;BME280;43755;49.736;8.734;2022-10-04T03:38:20;98538.19;;;4.80;100.00
11448;BME280;43755;49.736;8.734;2022-10-04T03:40:24;98539.13;;;4.76;100.00
11448;BME280;43755;49.736;8.734;2022-10-04T03:42:29;98533.06;;;4.69;100.00
11448;BME280;43755;49.736;8.734;2022-10-04T03:44:33;98534.75;;;4.76;100.00
11448;BME280;43755;49.736;8.734;2022-10-04T03:46:35;98526.81;;;4.81;100.00
11448;BME280;43755;49.736;8.734;2022-10-04T03:48:39;98532.06;;;4.82;100.00
11448;BME280;43755;49.736;8.734;2022-10-04T03:50:45;98517.09;;;4.89;100.00
11448;BME280;43755;49.736;8.734;2022-10-04T03:52:52;98523.22;;;4.89;100.00
11448;BME280;43755;49.736;8.734;2022-10-04T03:54:57;98526.63;;;4.96;100.00
11448;BME280;43755;49.736;8.734;2022-10-04T03:57:01;98524.88;;;4.95;100.00
11448;BME280;43755;49.736;8.734;2022-10-04T03:59:04;98522.25;;;4.97;100.00
11448;BME280;43755;49.736;8.734;2022-10-04T04:01:19;98515.25;;;4.97;100.00
11448;BME280;43755;49.736;8.734;2022-10-04T04:03:28;98520.56;;;4.94;100.00
11448;BME280;43755;49.736;8.734;2022-10-04T04:05:34;98522.31;;;4.93;100.00
11448;BME280;43755;49.736;8.734;2022-10-04T04:07:43;98517.06;;;4.92;100.00
11448;BME280;43755;49.736;8.734;2022-10-04T04:09:49;98516.19;;;4.91;100.00
11448;BME280;43755;49.736;8.734;2022-10-04T04:11:55;98527.59;;;4.89;100.00
11448;BME280;43755;49.736;8.734;2022-10-04T04:14:01;98538.06;;;4.90;100.00
11448;BME280;43755;49.736;8.734;2022-10-04T04:16:08;98532.88;;;4.86;100.00
11448;BME280;43755;49.736;8.734;2022-10-04T04:18:15;98532.06;;;4.82;100.00
11448;BME280;43755;49.736;8.734;2022-10-04T04:20:22;98522.47;;;4.78;100.00
11448;BME280;43755;49.736;8.734;2022-10-04T04:22:25;98519.84;;;4.80;100.00
11448;BME280;43755;49.736;8.734;2022-10-04T04:24:31;98520.66;;;4.83;100.00
11448;BME280;43755;49.736;8.734;2022-10-04T04:26:36;98504.09;;;4.83;100.00
11448;BME280;43755;49.736;8.734;2022-10-04T04:28:41;98506.66;;;4.87;100.00
11448;BME280;43755;49.736;8.734;2022-10-04T04:30:46;98509.19;;;4.93;100.00
11448;BME280;43755;49.736;8.734;2022-10-04T04:32:51;98509.19;;;4.93;100.00
11448;BME280;43755;49.736;8.734;2022-10-04T04:34:57;98503.91;;;4.97;100.00
11448;BME280;43755;49.736;8.734;2022-10-04T04:37:00;98503.00;;;4.98;100.00
11448;BME280;43755;49.736;8.734;2022-10-04T04:39:07;98498.56;;;5.03;100.00
11448;BME280;43755;49.736;8.734;2022-10-04T04:41:25;98496.81;;;5.05;100.00
11448;BME280;43755;49.736;8.734;2022-10-04T04:43:28;98491.56;;;5.06;100.00
11448;BME280;43755;49.736;8.734;2022-10-04T04:45:31;98500.25;;;5.07;100.00
11448;BME280;43755;49.736;8.734;2022-10-04T04:47:36;98496.72;;;5.12;100.00
11448;BME280;43755;49.736;8.734;2022-10-04T04:49:39;98497.03;;;5.51;100.00
11448;BME280;43755;49.736;8.734;2022-10-04T04:51:46;98505.97;;;5.38;100.00
11448;BME280;43755;49.736;8.734;2022-10-04T04:53:50;98501.31;;;5.59;100.00
11448;BME280;43755;49.736;8.734;2022-10-04T04:55:55;98511.19;;;5.39;100.00
11448;BME280;43755;49.736;8.734;2022-10-04T04:57:58;98506.91;;;5.33;100.00
11448;BME280;43755;49.736;8.734;2022-10-04T05:00:00;98499.94;;;5.31;100.00
11448;BME280;43755;49.736;8.734;2022-10-04T05:02:02;98499.03;;;5.33;100.00
11448;BME280;43755;49.736;8.734;2022-10-04T05:04:12;98493.72;;;5.36;100.00
11448;BME280;43755;49.736;8.734;2022-10-04T05:06:23;98489.34;;;5.39;100.00
11448;BME280;43755;49.736;8.734;2022-10-04T05:08:27;98497.13;;;5.45;100.00
11448;BME280;43755;49.736;8.734;2022-10-04T05:10:31;98489.25;;;5.45;100.00
11448;BME280;43755;49.736;8.734;2022-10-04T05:12:32;98497.94;;;5.50;100.00
11448;BME280;43755;49.736;8.734;2022-10-04T05:14:37;98498.78;;;5.52;100.00
11448;BME280;43755;49.736;8.734;2022-10-04T05:16:42;98501.41;;;5.50;100.00
11448;BME280;43755;49.736;8.734;2022-10-04T05:18:46;98497.94;;;5.48;100.00
11448;BME280;43755;49.736;8.734;2022-10-04T05:20:51;98494.50;;;5.46;100.00
11448;BME280;43755;49.736;8.734;2022-10-04T05:22:53;98502.28;;;5.52;100.00
11448;BME280;43755;49.736;8.734;2022-10-04T05:24:57;98505.78;;;5.50;100.00
11448;BME280;43755;49.736;8.734;2022-10-04T05:27:03;98502.34;;;5.48;100.00
11448;BME280;43755;49.736;8.734;2022-10-04T05:29:08;98496.34;;;5.40;100.00
11448;BME280;43755;49.736;8.734;2022-10-04T05:31:30;98498.13;;;5.36;100.00
11448;BME280;43755;49.736;8.734;2022-10-04T05:33:37;98499.91;;;5.35;100.00
11448;BME280;43755;49.736;8.734;2022-10-04T05:35:59;98495.56;;;5.31;100.00
11448;BME280;43755;49.736;8.734;2022-10-04T05:38:07;98498.13;;;5.36;100.00
11448;BME280;43755;49.736;8.734;2022-10-04T05:40:25;98494.59;;;5.37;100.00
11448;BME280;43755;49.736;8.734;2022-10-04T05:42:36;98504.19;;;5.41;100.00
11448;BME280;43755;49.736;8.734;2022-10-04T05:44:45;98510.31;;;5.42;100.00
11448;BME280;43755;49.736;8.734;2022-10-04T05:46:50;98507.63;;;5.43;100.00
11448;BME280;43755;49.736;8.734;2022-10-04T05:48:54;98499.81;;;5.42;100.00
11448;BME280;43755;49.736;8.734;2022-10-04T05:50:57;98496.25;;;5.44;100.00
11448;BME280;43755;49.736;8.734;2022-10-04T05:53:14;98499.69;;;5.49;100.00
11448;BME280;43755;49.736;8.734;2022-10-04T05:55:23;98493.53;;;5.50;100.00
11448;BME280;43755;49.736;8.734;2022-10-04T05:57:35;98500.53;;;5.53;100.00
11448;BME280;43755;49.736;8.734;2022-10-04T05:59:56;98502.22;;;5.55;100.00
11448;BME280;43755;49.736;8.734;2022-10-04T06:02:14;98502.13;;;5.60;100.00
11448;BME280;43755;49.736;8.734;2022-10-04T06:06:46;98495.84;;;5.71;100.00
11448;BME280;43755;49.736;8.734;2022-10-04T06:08:58;98503.59;;;5.81;100.00
11448;BME280;43755;49.736;8.734;2022-10-04T06:11:11;98514.06;;;5.82;100.00
11448;BME280;43755;49.736;8.734;2022-10-04T06:13:25;98514.94;;;5.81;100.00
11448;BME280;43755;49.736;8.734;2022-10-04T06:15:51;98513.19;;;5.83;100.00
11448;BME280;43755;49.736;8.734;2022-10-04T06:18:08;98513.06;;;5.91;100.00
11448;BME280;43755;49.736;8.734;2022-10-04T06:23:05;98519.88;;;6.02;100.00
11448;BME280;43755;49.736;8.734;2022-10-04T06:25:14;98517.06;;;6.13;100.00
11448;BME280;43755;49.736;8.734;2022-10-04T06:27:21;98520.44;;;6.21;100.00
11448;BME280;43755;49.736;8.734;2022-10-04T06:29:29;98516.69;;;6.36;100.00
11448;BME280;43755;49.736;8.734;2022-10-04T06:32:09;98513.84;;;6.48;100.00
11448;BME280;43755;49.736;8.734;2022-10-04T06:34:31;98518.03;;;6.60;100.00
11448;BME280;43755;49.736;8.734;2022-10-04T06:37:00;98515.19;;;6.69;100.00
11448;BME280;43755;49.736;8.734;2022-10-04T06:39:25;98516.81;;;6.77;100.00
11448;BME280;43755;49.736;8.734;2022-10-04T06:41:53;98512.19;;;6.88;100.00
11448;BME280;43755;49.736;8.734;2022-10-04T06:44:26;98523.38;;;6.99;100.00
11448;BME280;43755;49.736;8.734;2022-10-04T06:46:36;98519.63;;;7.10;100.00
11448;BME280;43755;49.736;8.734;2022-10-04T06:48:53;98521.13;;;7.23;100.00
11448;BME280;43755;49.736;8.734;2022-10-04T06:51:06;98507.69;;;7.35;100.00
11448;BME280;43755;49.736;8.734;2022-10-04T06:53:16;98510.97;;;7.45;100.00
11448;BME280;43755;49.736;8.734;2022-10-04T06:55:54;98509.88;;;7.55;100.00
11448;BME280;43755;49.736;8.734;2022-10-04T06:58:27;98516.59;;;7.68;100.00
11448;BME280;43755;49.736;8.734;2022-10-04T07:00:34;98514.56;;;7.79;100.00
11448;BME280;43755;49.736;8.734;2022-10-04T07:02:42;98509.13;;;7.87;100.00
11448;BME280;43755;49.736;8.734;2022-10-04T07:04:50;98515.09;;;7.95;100.00
11448;BME280;43755;49.736;8.734;2022-10-04T07:07:14;98529.06;;;7.98;100.00
11448;BME280;43755;49.736;8.734;2022-10-04T07:09:34;98523.59;;;8.06;100.00
11448;BME280;43755;49.736;8.734;2022-10-04T07:11:40;98520.66;;;8.18;100.00
11448;BME280;43755;49.736;8.734;2022-10-04T07:13:50;98517.78;;;8.27;100.00
11448;BME280;43755;49.736;8.734;2022-10-04T07:15:59;98529.91;;;8.36;100.00
11448;BME280;43755;49.736;8.734;2022-10-04T07:18:07;98534.09;;;8.43;100.00
11448;BME280;43755;49.736;8.734;2022-10-04T07:20:18;98537.53;;;8.46;100.00
11448;BME280;43755;49.736;8.734;2022-10-04T07:22:27;98532.03;;;8.55;100.00
11448;BME280;43755;49.736;8.734;2022-10-04T07:24:43;98532.59;;;8.67;100.00
11448;BME280;43755;49.736;8.734;2022-10-04T07:26:48;98535.94;;;8.73;100.00
11448;BME280;43755;49.736;8.734;2022-10-04T07:28:53;98527.78;;;8.82;100.00
11448;BME280;43755;49.736;8.734;2022-10-04T07:31:20;98523.88;;;8.95;100.00
11448;BME280;43755;49.736;8.734;2022-10-04T07:33:28;98527.13;;;9.07;100.00
11448;BME280;43755;49.736;8.734;2022-10-04T07:35:35;98532.88;;;9.19;100.00
11448;BME280;43755;49.736;8.734;2022-10-04T07:37:48;98531.59;;;9.34;100.00
11448;BME280;43755;49.736;8.734;2022-10-04T07:39:56;98528.41;;;9.52;100.00
11448;BME280;43755;49.736;8.734;2022-10-04T07:42:06;98516.25;;;9.74;100.00
11448;BME280;43755;49.736;8.734;2022-10-04T07:44:21;98515.69;;;9.93;100.00
11448;BME280;43755;49.736;8.734;2022-10-04T07:46:37;98521.28;;;10.10;100.00
11448;BME280;43755;49.736;8.734;2022-10-04T07:48:40;98517.31;;;10.24;100.00
11448;BME280;43755;49.736;8.734;2022-10-04T07:50:48;98513.13;;;10.44;100.00
11448;BME280;43755;49.736;8.734;2022-10-04T07:53:00;98511.03;;;10.53;100.00
11448;BME280;43755;49.736;8.734;2022-10-04T07:55:15;98504.34;;;10.68;100.00
11448;BME280;43755;49.736;8.734;2022-10-04T07:57:21;98505.81;;;10.77;100.00
11448;BME280;43755;49.736;8.734;2022-10-04T07:59:35;98511.50;;;10.66;100.00
11448;BME280;43755;49.736;8.734;2022-10-04T08:01:44;98503.00;;;10.81;100.00
11448;BME280;43755;49.736;8.734;2022-10-04T08:04:03;98506.13;;;10.92;100.00
11448;BME280;43755;49.736;8.734;2022-10-04T08:06:08;98510.16;;;11.02;100.00
11448;BME280;43755;49.736;8.734;2022-10-04T08:08:22;98512.25;;;11.18;100.00
11448;BME280;43755;49.736;8.734;2022-10-04T08:10:34;98516.28;;;11.28;100.00
11448;BME280;43755;49.736;8.734;2022-10-04T08:12:47;98514.94;;;11.39;100.00
11448;BME280;43755;49.736;8.734;2022-10-04T08:14:55;98516.31;;;11.49;100.00
11448;BME280;43755;49.736;8.734;2022-10-04T08:17:12;98514.66;;;11.47;100.00
11448;BME280;43755;49.736;8.734;2022-10-04T08:19:29;98516.16;;;11.54;100.00
11448;BME280;43755;49.736;8.734;2022-10-04T08:21:45;98513.09;;;11.65;100.00
11448;BME280;43755;49.736;8.734;2022-10-04T08:24:05;98512.69;;;11.75;100.00
11448;BME280;43755;49.736;8.734;2022-10-04T08:26:22;98528.38;;;11.81;100.00
11448;BME280;43755;49.736;8.734;2022-10-04T08:28:37;98530.72;;;11.89;100.00
11448;BME280;43755;49.736;8.734;2022-10-04T08:31:05;98522.38;;;11.98;100.00
11448;BME280;43755;49.736;8.734;2022-10-04T08:33:15;98523.25;;;11.99;100.00
11448;BME280;43755;49.736;8.734;2022-10-04T08:35:30;98524.34;;;12.15;100.00
11448;BME280;43755;49.736;8.734;2022-10-04T08:37:44;98529.09;;;12.28;100.00
11448;BME280;43755;49.736;8.734;2022-10-04T08:42:40;98527.47;;;12.46;100.00
11448;BME280;43755;49.736;8.734;2022-10-04T08:45:10;98535.72;;;12.60;100.00
11448;BME280;43755;49.736;8.734;2022-10-04T08:47:47;98518.41;;;12.72;100.00
11448;BME280;43755;49.736;8.734;2022-10-04T08:50:30;98517.47;;;12.93;100.00
11448;BME280;43755;49.736;8.734;2022-10-04T08:53:01;98518.00;;;13.01;100.00
11448;BME280;43755;49.736;8.734;2022-10-04T08:55:40;98515.56;;;13.17;100.00
11448;BME280;43755;49.736;8.734;2022-10-04T08:58:02;98514.94;;;13.31;100.00
11448;BME280;43755;49.736;8.734;2022-10-04T09:00:15;98515.50;;;13.37;100.00
11448;BME280;43755;49.736;8.734;2022-10-04T09:05:28;98525.13;;;13.40;100.00
11448;BME280;43755;49.736;8.734;2022-10-04T09:10:34;98525.00;;;13.62;100.00
11448;BME280;43755;49.736;8.734;2022-10-04T09:12:53;98527.53;;;13.65;100.00
11448;BME280;43755;49.736;8.734;2022-10-04T09:15:15;98536.78;;;13.75;100.00
11448;BME280;43755;49.736;8.734;2022-10-04T09:17:21;98539.81;;;13.86;100.00
11448;BME280;43755;49.736;8.734;2022-10-04T09:19:31;98535.56;;;13.82;100.00
11448;BME280;43755;49.736;8.734;2022-10-04T09:21:50;98531.53;;;13.92;100.00
11448;BME280;43755;49.736;8.734;2022-10-04T09:24:35;98527.16;;;13.91;100.00
11448;BME280;43755;49.736;8.734;2022-10-04T09:26:43;98530.16;;;14.02;100.00
11448;BME280;43755;49.736;8.734;2022-10-04T09:31:41;98515.84;;;14.05;100.00
11448;BME280;43755;49.736;8.734;2022-10-04T09:34:00;98511.03;;;14.13;100.00
11448;BME280;43755;49.736;8.734;2022-10-04T09:36:24;98516.19;;;14.16;100.00
11448;BME280;43755;49.736;8.734;2022-10-04T09:41:32;98518.78;;;14.17;100.00
11448;BME280;43755;49.736;8.734;2022-10-04T09:43:56;98523.25;;;14.34;100.00
11448;BME280;43755;49.736;8.734;2022-10-04T09:46:28;98519.53;;;14.38;100.00
11448;BME280;43755;49.736;8.734;2022-10-04T09:48:35;98518.31;;;14.45;100.00
11448;BME280;43755;49.736;8.734;2022-10-04T09:50:55;98519.41;;;14.58;100.00
11448;BME280;43755;49.736;8.734;2022-10-04T09:53:22;98526.91;;;14.67;100.00
11448;BME280;43755;49.736;8.734;2022-10-04T09:55:41;98530.75;;;14.79;100.00
11448;BME280;43755;49.736;8.734;2022-10-04T09:58:04;98524.59;;;14.96;100.00
11448;BME280;43755;49.736;8.734;2022-10-04T10:00:16;98524.13;;;15.21;100.00
11448;BME280;43755;49.736;8.734;2022-10-04T10:04:50;98523.25;;;15.37;97.17
11448;BME280;43755;49.736;8.734;2022-10-04T10:07:12;98525.34;;;15.48;97.19
11448;BME280;43755;49.736;8.734;2022-10-04T10:09:24;98528.38;;;15.57;95.60
11448;BME280;43755;49.736;8.734;2022-10-04T10:11:55;98529.53;;;15.69;91.41
11448;BME280;43755;49.736;8.734;2022-10-04T10:14:40;98528.50;;;15.87;88.23
11448;BME280;43755;49.736;8.734;2022-10-04T10:16:57;98533.25;;;15.82;85.40
11448;BME280;43755;49.736;8.734;2022-10-04T10:19:12;98529.56;;;16.01;90.55
11448;BME280;43755;49.736;8.734;2022-10-04T10:21:35;98527.41;;;16.07;85.03
11448;BME280;43755;49.736;8.734;2022-10-04T10:24:02;98522.41;;;16.01;86.32
11448;BME280;43755;49.736;8.734;2022-10-04T10:26:25;98525.47;;;16.09;85.55
11448;BME280;43755;49.736;8.734;2022-10-04T10:28:45;98525.66;;;16.06;87.44
11448;BME280;43755;49.736;8.734;2022-10-04T10:31:05;98531.69;;;16.10;83.31
11448;BME280;43755;49.736;8.734;2022-10-04T10:33:36;98521.50;;;16.32;84.53
11448;BME280;43755;49.736;8.734;2022-10-04T10:36:12;98524.44;;;16.27;82.07
11448;BME280;43755;49.736;8.734;2022-10-04T10:38:30;98516.50;;;16.26;81.44
11448;BME280;43755;49.736;8.734;2022-10-04T10:40:46;98518.75;;;16.49;84.23
11448;BME280;43755;49.736;8.734;2022-10-04T10:43:02;98516.84;;;16.67;79.40
11448;BME280;43755;49.736;8.734;2022-10-04T10:45:18;98512.59;;;16.93;82.50
11448;BME280;43755;49.736;8.734;2022-10-04T10:47:33;98514.59;;;16.89;78.87
11448;BME280;43755;49.736;8.734;2022-10-04T10:49:51;98517.91;;;16.78;78.89
11448;BME280;43755;49.736;8.734;2022-10-04T10:54:52;98514.97;;;16.97;79.35
11448;BME280;43755;49.736;8.734;2022-10-04T10:57:04;98506.09;;;16.97;78.97
11448;BME280;43755;49.736;8.734;2022-10-04T10:59:35;98501.81;;;16.94;77.62
11448;BME280;43755;49.736;8.734;2022-10-04T11:02:17;98507.72;;;16.99;81.66
11448;BME280;43755;49.736;8.734;2022-10-04T11:04:41;98506.59;;;17.03;79.54
11448;BME280;43755;49.736;8.734;2022-10-04T11:07:16;98509.97;;;17.35;81.34
11448;BME280;43755;49.736;8.734;2022-10-04T11:09:30;98511.97;;;17.32;78.10
11448;BME280;43755;49.736;8.734;2022-10-04T11:16:53;98505.09;;;17.42;84.49
11448;BME280;43755;49.736;8.734;2022-10-04T11:22:07;98503.56;;;17.52;80.55
11448;BME280;43755;49.736;8.734;2022-10-04T11:24:41;98509.59;;;17.70;82.97
11448;BME280;43755;49.736;8.734;2022-10-04T11:29:43;98502.22;;;17.87;79.14
11448;BME280;43755;49.736;8.734;2022-10-04T11:32:22;98503.47;;;18.09;77.01
11448;BME280;43755;49.736;8.734;2022-10-04T11:35:25;98505.91;;;18.53;76.70
11448;BME280;43755;49.736;8.734;2022-10-04T11:37:42;98497.25;;;18.89;73.70
11448;BME280;43755;49.736;8.734;2022-10-04T11:39:57;98496.41;;;19.13;70.31
11448;BME280;43755;49.736;8.734;2022-10-04T11:42:09;98497.72;;;19.46;71.35
11448;BME280;43755;49.736;8.734;2022-10-04T11:47:08;98489.81;;;19.81;66.51
11448;BME280;43755;49.736;8.734;2022-10-04T11:49:30;98499.88;;;20.02;66.35
11448;BME280;43755;49.736;8.734;2022-10-04T11:52:06;98489.25;;;20.25;64.13
11448;BME280;43755;49.736;8.734;2022-10-04T11:54:43;98494.13;;;20.20;68.92
11448;BME280;43755;49.736;8.734;2022-10-04T11:57:11;98490.44;;;20.33;66.50
11448;BME280;43755;49.736;8.734;2022-10-04T11:59:39;98493.84;;;19.99;66.18
11448;BME280;43755;49.736;8.734;2022-10-04T12:04:39;98493.09;;;19.60;71.66
11448;BME280;43755;49.736;8.734;2022-10-04T12:07:03;98491.81;;;19.53;71.61
11448;BME280;43755;49.736;8.734;2022-10-04T12:09:13;98483.25;;;19.48;70.60
11448;BME280;43755;49.736;8.734;2022-10-04T12:11:46;98479.19;;;19.79;66.52
11448;BME280;43755;49.736;8.734;2022-10-04T12:14:22;98472.28;;;20.24;66.60
11448;BME280;43755;49.736;8.734;2022-10-04T12:16:55;98469.66;;;20.59;63.74
11448;BME280;43755;49.736;8.734;2022-10-04T12:19:44;98469.84;;;20.80;60.31
11448;BME280;43755;49.736;8.734;2022-10-04T12:22:00;98460.44;;;20.85;59.85
11448;BME280;43755;49.736;8.734;2022-10-04T12:24:24;98463.47;;;21.16;61.41
11448;BME280;43755;49.736;8.734;2022-10-04T12:26:48;98458.13;;;20.92;60.82